FQVL

Vilankulo Airport

Vilanculo, Mozambique
METAR FQVL 181500Z 19004KT 9999 BKN020 BKN080 26/25 Q1003
Observed Flight Rules
Jan-18 @ 15:00 UTC (5 hours ago) Marginal Visual Flight Rules
Wind Visibility Clouds
190° at 4 knots 10,000+ meters
  • Broken at 2,000' AGL
  • Broken at 8,000' AGL
Temperatures Readings
Current 26°C / 79°F
Dewpoint 25°C / 77°F
Humidity 94%
Altimeter 29.62" Hg
Pressure 1002.92 hPa
Elevation 21
METAR FQVL 181500Z 19004KT 9999 BKN020 BKN080 26/25 Q1003
Observed Flight Rules
Jan-18 @ 15:00 UTC
(5 hours ago)
MVFR
Wind Visibility
190° at 4 knots 10,000+ meters
Clouds
  • Broken at 2,000' AGL
  • Broken at 8,000' AGL
Temperature Dewpoint
26°C / 79°F 25°C / 77°F
Humidity Altimeter Pressure
94% 29.62" Hg 1002.92 hPa